createdAt,value
2018-06-05T00:01:41.478Z,17.80
2018-06-05T00:06:38.544Z,17.70
2018-06-05T00:09:08.134Z,17.70
2018-06-05T00:11:36.682Z,17.70
2018-06-05T00:19:02.701Z,17.60
2018-06-05T00:21:31.983Z,17.60
2018-06-05T00:26:28.849Z,17.60
2018-06-05T00:31:26.407Z,17.50
2018-06-05T00:33:55.025Z,17.40
2018-06-05T00:36:23.707Z,17.40
2018-06-05T00:38:52.291Z,17.30
2018-06-05T00:41:20.944Z,17.30
2018-06-05T00:43:49.503Z,17.30
2018-06-05T00:46:18.587Z,17.30
2018-06-05T00:48:47.127Z,17.20
2018-06-05T00:56:18.397Z,17.20
2018-06-05T01:01:16.127Z,17.10
2018-06-05T01:03:44.650Z,17.10
2018-06-05T01:06:13.201Z,17.00
2018-06-05T01:08:41.796Z,17.00
2018-06-05T01:11:11.203Z,16.90
2018-06-05T01:13:39.857Z,16.90
2018-06-05T01:16:08.434Z,16.90
2018-06-05T01:18:37.094Z,16.80
2018-06-05T01:21:06.331Z,16.80
2018-06-05T01:23:35.193Z,16.80
2018-06-05T01:26:03.769Z,16.80
2018-06-05T01:28:32.767Z,16.90
2018-06-05T01:31:02.511Z,16.90
2018-06-05T01:33:31.100Z,16.90
2018-06-05T01:35:59.754Z,16.90
2018-06-05T01:38:28.456Z,17.00
2018-06-05T01:40:56.963Z,17.00
2018-06-05T01:43:25.655Z,16.90
2018-06-05T01:45:54.403Z,16.90
2018-06-05T01:48:23.089Z,16.90
2018-06-05T01:50:52.363Z,16.90
2018-06-05T01:53:21.166Z,17.00
2018-06-05T01:55:50.623Z,17.00
2018-06-05T02:00:48.654Z,17.00
2018-06-05T02:03:17.297Z,16.90
2018-06-05T02:15:39.184Z,17.00
2018-06-05T02:18:07.791Z,16.90
2018-06-05T02:20:36.486Z,17.00
2018-06-05T02:23:05.245Z,16.90
2018-06-05T02:28:02.176Z,17.00
2018-06-05T02:30:30.786Z,16.90
2018-06-05T02:35:27.925Z,16.90
2018-06-05T02:37:57.852Z,16.80
2018-06-05T02:40:26.592Z,16.90
2018-06-05T02:42:55.141Z,16.90
2018-06-05T02:47:52.072Z,16.90
2018-06-05T02:50:20.634Z,16.80
2018-06-05T02:52:49.460Z,16.80
2018-06-05T02:55:20.010Z,16.80
2018-06-05T02:57:48.656Z,16.80
2018-06-05T03:00:17.360Z,16.80
2018-06-05T03:05:14.428Z,16.90
2018-06-05T03:12:39.665Z,17.00
2018-06-05T03:20:05.396Z,17.10
2018-06-05T03:22:34.081Z,17.10
2018-06-05T03:25:02.841Z,17.10
2018-06-05T03:27:31.623Z,17.00
2018-06-05T03:30:00.164Z,17.00
2018-06-05T03:32:28.877Z,17.00
2018-06-05T03:34:57.460Z,17.00
2018-06-05T03:37:26.080Z,17.10
2018-06-05T03:39:54.704Z,17.10
2018-06-05T03:42:23.296Z,17.20
2018-06-05T03:44:51.893Z,17.20
2018-06-05T03:47:20.819Z,17.20
2018-06-05T03:49:49.689Z,17.20
2018-06-05T03:52:18.372Z,17.20
2018-06-05T03:54:46.913Z,17.30
2018-06-05T03:59:44.333Z,17.20
2018-06-05T04:02:12.868Z,17.20
2018-06-05T04:04:41.908Z,17.20
2018-06-05T04:07:10.599Z,17.20
2018-06-05T04:09:39.820Z,17.20
2018-06-05T04:14:39.652Z,17.20
2018-06-05T04:19:36.641Z,17.10
2018-06-05T04:22:05.262Z,17.10
2018-06-05T04:24:34.269Z,17.10
2018-06-05T04:27:02.974Z,17.10
2018-06-05T04:29:31.656Z,17.10
2018-06-05T04:32:00.404Z,17.10
2018-06-05T04:34:29.001Z,17.20
2018-06-05T04:36:57.893Z,17.20
2018-06-05T04:39:26.672Z,17.20
2018-06-05T04:41:56.052Z,17.30
2018-06-05T04:44:25.290Z,17.20
2018-06-05T04:46:54.188Z,17.20
2018-06-05T04:49:22.875Z,17.20
2018-06-05T04:51:51.891Z,17.30
2018-06-05T04:54:20.517Z,17.30
2018-06-05T04:56:49.175Z,17.30
2018-06-05T04:59:18.365Z,17.30
2018-06-05T05:01:47.625Z,17.40
2018-06-05T05:04:16.326Z,17.50
2018-06-05T05:06:44.900Z,17.40
2018-06-05T05:09:13.542Z,17.50
2018-06-05T05:11:42.973Z,17.50
2018-06-05T05:14:11.579Z,17.50
2018-06-05T05:19:08.529Z,17.40
2018-06-05T05:21:37.236Z,17.30
2018-06-05T05:29:02.819Z,17.50
2018-06-05T05:31:31.407Z,17.40
2018-06-05T05:34:00.103Z,17.40
2018-06-05T05:36:28.645Z,17.40
2018-06-05T05:38:57.335Z,17.60
2018-06-05T05:41:25.980Z,17.60
2018-06-05T05:46:22.955Z,17.30
2018-06-05T05:51:19.951Z,17.30
2018-06-05T05:53:48.584Z,17.30
2018-06-05T05:56:17.733Z,17.20
2018-06-05T05:58:47.399Z,17.20
2018-06-05T06:01:16.203Z,17.30
2018-06-05T06:06:14.233Z,17.30
2018-06-05T06:08:43.266Z,17.40
2018-06-05T06:13:40.155Z,17.60
2018-06-05T06:16:09.402Z,17.80
2018-06-05T06:18:38.089Z,17.80
2018-06-05T06:21:07.213Z,17.80
2018-06-05T06:26:04.290Z,17.50
2018-06-05T06:28:32.925Z,17.50
2018-06-05T06:31:01.623Z,17.70
2018-06-05T06:35:58.647Z,17.90
2018-06-05T06:38:27.360Z,17.80
2018-06-05T06:40:56.057Z,17.50
2018-06-05T06:43:24.766Z,17.60
2018-06-05T06:48:21.727Z,17.70
2018-06-05T06:53:19.032Z,17.90
2018-06-05T06:55:47.961Z,18.00
2018-06-05T06:58:16.649Z,18.00
2018-06-05T07:00:45.255Z,17.90
2018-06-05T07:05:42.165Z,17.90
2018-06-05T07:08:10.873Z,18.00
2018-06-05T07:13:17.756Z,18.10
2018-06-05T07:15:46.306Z,18.00
2018-06-05T07:18:14.932Z,18.20
2018-06-05T07:20:43.614Z,18.30
2018-06-05T07:23:12.173Z,18.30
2018-06-05T07:25:40.860Z,18.40
2018-06-05T07:28:09.427Z,18.50
2018-06-05T07:30:38.044Z,18.50
2018-06-05T07:33:07.200Z,18.40
2018-06-05T07:35:38.771Z,18.40
2018-06-05T07:38:08.932Z,18.60
2018-06-05T07:40:39.475Z,18.70
2018-06-05T07:43:08.390Z,18.70
2018-06-05T07:45:38.182Z,18.90
2018-06-05T07:48:06.850Z,18.80
2018-06-05T07:53:03.654Z,18.70
2018-06-05T07:55:32.316Z,18.80
2018-06-05T07:58:01.003Z,18.90
2018-06-05T08:00:29.610Z,19.30
2018-06-05T08:02:58.886Z,19.50
2018-06-05T08:05:27.869Z,19.70
2018-06-05T08:10:24.896Z,20.40
2018-06-05T08:12:53.478Z,20.60
2018-06-05T08:15:22.073Z,20.30
2018-06-05T08:17:50.726Z,19.80
2018-06-05T08:20:19.359Z,19.70
2018-06-05T08:25:21.270Z,19.70
2018-06-05T08:27:50.961Z,19.60
2018-06-05T08:30:19.669Z,19.70
2018-06-05T08:32:48.352Z,19.80
2018-06-05T08:35:17.049Z,20.10
2018-06-05T08:37:45.799Z,20.10
2018-06-05T08:40:15.157Z,20.00
2018-06-05T08:42:43.744Z,19.90
2018-06-05T08:45:13.236Z,19.90
2018-06-05T08:47:41.823Z,19.70
2018-06-05T08:50:10.368Z,19.40
2018-06-05T08:52:38.932Z,19.60
2018-06-05T08:55:07.576Z,19.90
2018-06-05T08:57:36.298Z,20.50
2018-06-05T09:00:05.853Z,20.50
2018-06-05T09:02:34.472Z,20.40
2018-06-05T09:07:32.758Z,19.90
2018-06-05T09:12:31.043Z,19.90
2018-06-05T09:17:27.898Z,20.10
2018-06-05T09:19:56.580Z,20.50
2018-06-05T09:22:25.191Z,20.80
2018-06-05T09:24:54.105Z,20.80
2018-06-05T09:27:22.780Z,21.00
2018-06-05T09:29:51.311Z,20.90
2018-06-05T09:32:20.072Z,20.90
2018-06-05T09:34:48.710Z,21.10
2018-06-05T09:39:45.552Z,21.20
2018-06-05T09:42:14.802Z,21.20
2018-06-05T09:44:43.424Z,21.20
2018-06-05T09:47:12.022Z,21.00
2018-06-05T09:49:40.594Z,20.90
2018-06-05T09:52:09.204Z,21.00
2018-06-05T09:57:06.176Z,21.60
2018-06-05T09:59:34.811Z,21.50
2018-06-05T10:02:03.425Z,21.40
2018-06-05T10:07:00.820Z,21.20
2018-06-05T10:09:30.044Z,21.10
2018-06-05T10:11:58.756Z,21.00
2018-06-05T10:14:27.473Z,21.10
2018-06-05T10:16:56.121Z,21.20
2018-06-05T10:19:24.740Z,21.20
2018-06-05T10:24:21.753Z,21.20
2018-06-05T10:26:50.468Z,21.20
2018-06-05T10:29:19.108Z,21.20
2018-06-05T10:31:48.723Z,21.40
2018-06-05T10:34:17.442Z,21.60
2018-06-05T10:39:14.651Z,21.60
2018-06-05T10:41:43.375Z,21.50
2018-06-05T10:44:12.135Z,21.30
2018-06-05T10:46:40.859Z,21.50
2018-06-05T10:51:38.399Z,21.60
2018-06-05T10:54:07.050Z,21.80
2018-06-05T10:59:03.983Z,21.90
2018-06-05T11:01:33.327Z,21.90
2018-06-05T11:04:02.040Z,21.90
2018-06-05T11:06:30.638Z,21.80
2018-06-05T11:08:59.336Z,21.80
2018-06-05T11:11:28.180Z,21.80
2018-06-05T11:13:57.578Z,21.80
2018-06-05T11:16:26.237Z,21.70
2018-06-05T11:18:54.904Z,21.90
2018-06-05T11:21:23.435Z,21.40
2018-06-05T11:23:53.199Z,21.30
2018-06-05T11:28:50.932Z,21.80
2018-06-05T11:31:19.606Z,22.00
2018-06-05T11:33:48.416Z,22.60
2018-06-05T11:36:17.024Z,23.40
2018-06-05T11:38:45.633Z,23.70
2018-06-05T11:46:11.388Z,24.00
2018-06-05T11:48:40.036Z,24.30
2018-06-05T11:51:09.291Z,24.30
2018-06-05T11:53:38.238Z,24.10
2018-06-05T11:56:07.776Z,24.30
2018-06-05T11:58:36.540Z,24.50
2018-06-05T12:03:33.484Z,24.10
2018-06-05T12:06:02.081Z,24.10
2018-06-05T12:10:58.944Z,23.60
2018-06-05T12:18:24.237Z,26.20
2018-06-05T12:20:52.900Z,27.50
2018-06-05T12:23:22.605Z,28.20
2018-06-05T12:25:51.269Z,28.10
2018-06-05T12:30:48.072Z,29.00
2018-06-05T12:33:16.604Z,28.70
2018-06-05T12:40:41.768Z,25.80
2018-06-05T12:43:11.509Z,25.20
2018-06-05T12:45:40.066Z,25.40
2018-06-05T12:48:08.718Z,26.90
2018-06-05T12:50:37.432Z,28.10
2018-06-05T12:53:06.218Z,29.60
2018-06-05T12:55:35.498Z,31.00
2018-06-05T12:58:04.970Z,31.90
2018-06-05T13:03:02.018Z,30.50
2018-06-05T13:05:30.716Z,30.40
2018-06-05T13:08:00.045Z,31.80
2018-06-05T13:10:28.649Z,32.60
2018-06-05T13:12:57.877Z,31.50
2018-06-05T13:15:26.441Z,31.80
2018-06-05T13:17:56.344Z,33.40
2018-06-05T13:20:26.132Z,34.80
2018-06-05T13:22:55.738Z,35.10
2018-06-05T13:25:24.232Z,36.30
2018-06-05T13:27:53.249Z,35.60
2018-06-05T13:30:28.552Z,34.90
2018-06-05T13:32:57.163Z,32.70
2018-06-05T13:35:25.844Z,30.60
2018-06-05T13:37:54.538Z,29.30
2018-06-05T13:40:24.126Z,28.20
2018-06-05T13:42:53.249Z,29.10
2018-06-05T13:45:21.856Z,30.20
2018-06-05T13:47:50.414Z,30.00
2018-06-05T13:50:19.092Z,29.20
2018-06-05T13:52:47.719Z,29.60
2018-06-05T14:00:13.016Z,33.10
2018-06-05T14:02:41.591Z,34.30
2018-06-05T14:05:10.665Z,35.80
2018-06-05T14:07:39.281Z,36.50
2018-06-05T14:10:08.526Z,35.60
2018-06-05T14:15:05.776Z,32.00
2018-06-05T14:17:34.380Z,31.00
2018-06-05T14:22:31.217Z,29.20
2018-06-05T14:24:59.884Z,28.70
2018-06-05T14:27:28.558Z,28.90
2018-06-05T14:29:57.296Z,28.70
2018-06-05T14:34:54.439Z,28.00
2018-06-05T14:37:23.118Z,27.20
2018-06-05T14:39:51.805Z,27.80
2018-06-05T14:42:20.451Z,30.10
2018-06-05T14:44:49.153Z,32.40
2018-06-05T14:47:17.849Z,34.30
2018-06-05T14:49:46.470Z,35.30
2018-06-05T14:54:43.448Z,36.30
2018-06-05T14:57:12.377Z,37.70
2018-06-05T14:59:41.808Z,38.60
2018-06-05T15:02:10.433Z,39.50
2018-06-05T15:04:39.026Z,38.60
2018-06-05T15:07:07.664Z,38.50
2018-06-05T15:09:37.523Z,39.90
2018-06-05T15:12:06.203Z,40.40
2018-06-05T15:14:34.844Z,40.30
2018-06-05T15:17:04.234Z,39.40
2018-06-05T15:19:33.132Z,39.90
2018-06-05T15:22:01.750Z,40.70
2018-06-05T15:24:30.383Z,41.30
2018-06-05T15:26:59.044Z,40.30
2018-06-05T15:29:27.667Z,40.80
2018-06-05T15:31:56.368Z,41.40
2018-06-05T15:36:54.781Z,40.30
2018-06-05T15:39:23.418Z,41.10
2018-06-05T15:41:52.273Z,41.30
2018-06-05T15:44:20.923Z,41.50
2018-06-05T15:54:14.974Z,38.50
2018-06-05T15:56:44.635Z,37.30
2018-06-05T15:59:15.859Z,36.60
2018-06-05T16:01:45.244Z,36.80
2018-06-05T16:04:14.509Z,36.10
2018-06-05T16:06:43.171Z,36.60
2018-06-05T16:09:11.772Z,37.90
2018-06-05T16:11:40.367Z,38.30
2018-06-05T16:14:08.975Z,38.80
2018-06-05T16:16:37.593Z,38.30
2018-06-05T16:19:06.123Z,39.10
2018-06-05T16:21:34.845Z,39.80
2018-06-05T16:24:03.744Z,39.30
2018-06-05T16:26:32.943Z,38.50
2018-06-05T16:29:01.554Z,36.60
2018-06-05T16:34:04.573Z,35.20
2018-06-05T16:36:33.234Z,35.80
2018-06-05T16:41:30.474Z,33.90
2018-06-05T16:44:00.073Z,32.90
2018-06-05T16:46:28.648Z,31.60
2018-06-05T16:48:57.314Z,30.70
2018-06-05T16:51:26.692Z,29.60
2018-06-05T16:56:23.566Z,28.50
2018-06-05T16:58:52.218Z,28.50
2018-06-05T17:01:20.796Z,28.20
2018-06-05T17:03:49.937Z,28.00
2018-06-05T17:06:18.526Z,28.10
2018-06-05T17:08:47.089Z,28.10
2018-06-05T17:13:45.469Z,27.90
2018-06-05T17:16:14.306Z,27.90
2018-06-05T17:18:42.992Z,27.40
2018-06-05T17:21:11.562Z,27.10
2018-06-05T17:23:40.327Z,27.00
2018-06-05T17:26:10.009Z,26.60
2018-06-05T17:28:38.609Z,26.40
2018-06-05T17:33:35.538Z,26.00
2018-06-05T17:36:04.900Z,25.90
2018-06-05T17:38:33.545Z,25.80
2018-06-05T17:46:02.821Z,25.20
2018-06-05T17:48:31.649Z,25.10
2018-06-05T17:51:00.513Z,24.80
2018-06-05T17:53:29.989Z,24.60
2018-06-05T17:55:58.804Z,24.60
2018-06-05T17:58:27.415Z,24.50
2018-06-05T18:00:56.080Z,24.50
2018-06-05T18:03:24.683Z,24.40
2018-06-05T18:05:53.253Z,24.30
2018-06-05T18:08:21.886Z,24.10
2018-06-05T18:10:50.616Z,24.10
2018-06-05T18:13:19.260Z,23.90
2018-06-05T18:15:47.898Z,23.80
2018-06-05T18:18:16.735Z,23.70
2018-06-05T18:20:45.492Z,23.60
2018-06-05T18:25:46.276Z,23.40
2018-06-05T18:28:14.991Z,23.30
2018-06-05T18:30:43.629Z,23.30
2018-06-05T18:33:13.018Z,23.20
2018-06-05T18:38:10.502Z,23.00
2018-06-05T18:40:39.880Z,22.90
2018-06-05T18:48:06.669Z,22.60
2018-06-05T18:50:35.377Z,22.50
2018-06-05T18:53:04.738Z,22.40
2018-06-05T18:55:34.861Z,22.40
2018-06-05T19:00:31.801Z,22.20
2018-06-05T19:03:00.689Z,22.00
2018-06-05T19:05:29.425Z,21.90
2018-06-05T19:07:58.121Z,21.80
2018-06-05T19:10:26.860Z,21.70
2018-06-05T19:13:00.635Z,21.60
2018-06-05T19:15:29.976Z,21.50
2018-06-05T19:22:56.812Z,21.20
2018-06-05T19:25:26.312Z,21.10
2018-06-05T19:27:55.523Z,20.90
2018-06-05T19:30:24.540Z,20.80
2018-06-05T19:37:50.399Z,20.50
2018-06-05T19:42:48.290Z,20.40
2018-06-05T19:47:47.835Z,20.20
2018-06-05T19:50:16.775Z,20.10
2018-06-05T19:52:45.528Z,20.00
2018-06-05T19:55:14.657Z,19.90
2018-06-05T19:57:43.367Z,19.90
2018-06-05T20:00:16.606Z,19.70
2018-06-05T20:05:14.573Z,19.60
2018-06-05T20:07:43.486Z,19.50
2018-06-05T20:10:12.675Z,19.50
2018-06-05T20:12:42.367Z,19.50
2018-06-05T20:15:11.291Z,19.40
2018-06-05T20:17:40.724Z,19.30
2018-06-05T20:22:39.810Z,19.20
2018-06-05T20:25:08.712Z,19.10
2018-06-05T20:30:06.980Z,19.00
2018-06-05T20:32:35.709Z,18.90
2018-06-05T20:37:33.866Z,18.80
2018-06-05T20:40:02.649Z,18.70
2018-06-05T20:42:32.426Z,18.60
2018-06-05T20:45:02.259Z,18.60
2018-06-05T20:47:31.025Z,18.50
2018-06-05T20:50:01.162Z,18.50
2018-06-05T20:52:31.075Z,18.40
2018-06-05T20:55:03.653Z,18.30
2018-06-05T20:57:32.264Z,18.30
2018-06-05T21:00:05.339Z,18.30
2018-06-05T21:02:34.795Z,18.20
2018-06-05T21:05:04.371Z,18.10
2018-06-05T21:10:02.193Z,18.00
2018-06-05T21:12:30.839Z,18.00
2018-06-05T21:17:28.356Z,17.90
2018-06-05T21:19:57.086Z,17.80
2018-06-05T21:22:25.693Z,17.70
2018-06-05T21:27:22.796Z,17.60
2018-06-05T21:29:51.829Z,17.50
2018-06-05T21:32:20.748Z,17.50
2018-06-05T21:39:46.200Z,17.30
2018-06-05T21:42:15.118Z,17.30
2018-06-05T21:44:44.527Z,17.30
2018-06-05T21:47:13.822Z,17.20
2018-06-05T21:49:42.501Z,17.10
2018-06-05T21:52:11.398Z,17.10
2018-06-05T21:54:40.503Z,17.00
2018-06-05T21:57:09.223Z,16.90
2018-06-05T22:02:06.398Z,16.80
2018-06-05T22:07:03.380Z,16.70
2018-06-05T22:09:31.987Z,16.60
2018-06-05T22:12:00.568Z,16.60
2018-06-05T22:14:30.036Z,16.50
2018-06-05T22:16:58.658Z,16.50
2018-06-05T22:19:27.217Z,16.40
2018-06-05T22:21:55.928Z,16.40
2018-06-05T22:24:24.576Z,16.40
2018-06-05T22:26:53.200Z,16.40
2018-06-05T22:29:21.961Z,16.30
2018-06-05T22:31:50.900Z,16.20
2018-06-05T22:34:19.508Z,16.20
2018-06-05T22:39:16.504Z,16.10
2018-06-05T22:41:45.224Z,16.10
2018-06-05T22:44:13.830Z,16.00
2018-06-05T22:49:11.278Z,15.90
2018-06-05T22:51:39.874Z,15.90
2018-06-05T22:54:08.535Z,15.90
2018-06-05T22:56:37.142Z,15.80
2018-06-05T23:01:34.305Z,15.70
2018-06-05T23:04:03.027Z,15.70
2018-06-05T23:11:28.348Z,15.60
2018-06-05T23:13:57.276Z,15.60
2018-06-05T23:16:25.875Z,15.50
2018-06-05T23:18:54.754Z,15.50
2018-06-05T23:21:23.416Z,15.50
2018-06-05T23:23:52.072Z,15.40
2018-06-05T23:28:48.888Z,15.40
2018-06-05T23:31:17.546Z,15.40
2018-06-05T23:33:46.170Z,15.30
2018-06-05T23:36:14.798Z,15.30
2018-06-05T23:41:11.749Z,15.20
2018-06-05T23:46:08.601Z,15.20
2018-06-05T23:51:05.531Z,15.10
2018-06-05T23:53:35.337Z,15.10
2018-06-05T23:56:04.040Z,15.10
2018-06-05T23:58:32.610Z,15.10
